sensor_id;sensor_type;location;lat;lon;timestamp;temperature;humidity
9125;DHT22;4597;48.730;9.114;2023-12-14T00:01:37;7.50;99.90
9125;DHT22;4597;48.730;9.114;2023-12-14T00:04:05;7.50;99.90
9125;DHT22;4597;48.730;9.114;2023-12-14T00:06:30;7.50;99.90
9125;DHT22;4597;48.730;9.114;2023-12-14T00:08:56;7.50;99.90
9125;DHT22;4597;48.730;9.114;2023-12-14T00:11:21;7.50;99.90
9125;DHT22;4597;48.730;9.114;2023-12-14T00:13:47;7.50;99.90
9125;DHT22;4597;48.730;9.114;2023-12-14T00:16:13;7.60;99.90
9125;DHT22;4597;48.730;9.114;2023-12-14T00:18:38;7.60;99.90
9125;DHT22;4597;48.730;9.114;2023-12-14T00:21:04;7.60;99.90
9125;DHT22;4597;48.730;9.114;2023-12-14T00:23:30;7.60;99.90
9125;DHT22;4597;48.730;9.114;2023-12-14T00:25:55;7.60;99.90
9125;DHT22;4597;48.730;9.114;2023-12-14T00:28:21;7.60;99.90
9125;DHT22;4597;48.730;9.114;2023-12-14T00:30:47;7.60;99.90
9125;DHT22;4597;48.730;9.114;2023-12-14T00:33:13;7.70;99.90
9125;DHT22;4597;48.730;9.114;2023-12-14T00:35:38;7.60;99.90
9125;DHT22;4597;48.730;9.114;2023-12-14T00:38:04;7.60;99.90
9125;DHT22;4597;48.730;9.114;2023-12-14T00:40:29;7.60;99.90
9125;DHT22;4597;48.730;9.114;2023-12-14T00:42:55;7.60;99.90
9125;DHT22;4597;48.730;9.114;2023-12-14T00:45:20;7.60;99.90
9125;DHT22;4597;48.730;9.114;2023-12-14T00:47:46;7.60;99.90
9125;DHT22;4597;48.730;9.114;2023-12-14T00:50:11;7.70;99.90
9125;DHT22;4597;48.730;9.114;2023-12-14T00:52:37;7.70;99.90
9125;DHT22;4597;48.730;9.114;2023-12-14T00:55:03;7.70;99.90
9125;DHT22;4597;48.730;9.114;2023-12-14T00:57:28;7.60;99.90
9125;DHT22;4597;48.730;9.114;2023-12-14T00:59:54;7.60;99.90
9125;DHT22;4597;48.730;9.114;2023-12-14T01:02:19;7.60;99.90
9125;DHT22;4597;48.730;9.114;2023-12-14T01:04:45;7.60;99.90
9125;DHT22;4597;48.730;9.114;2023-12-14T01:07:11;7.60;99.90
9125;DHT22;4597;48.730;9.114;2023-12-14T01:09:36;7.60;99.90
9125;DHT22;4597;48.730;9.114;2023-12-14T01:12:02;7.60;99.90
9125;DHT22;4597;48.730;9.114;2023-12-14T01:14:27;7.60;99.90
9125;DHT22;4597;48.730;9.114;2023-12-14T01:16:53;7.60;99.90
9125;DHT22;4597;48.730;9.114;2023-12-14T01:19:18;7.60;99.90
9125;DHT22;4597;48.730;9.114;2023-12-14T01:21:44;7.60;99.90
9125;DHT22;4597;48.730;9.114;2023-12-14T01:24:09;7.60;99.90
9125;DHT22;4597;48.730;9.114;2023-12-14T01:26:36;7.60;99.90
9125;DHT22;4597;48.730;9.114;2023-12-14T01:29:01;7.60;99.90
9125;DHT22;4597;48.730;9.114;2023-12-14T01:31:27;7.60;99.90
9125;DHT22;4597;48.730;9.114;2023-12-14T01:33:53;7.60;99.90
9125;DHT22;4597;48.730;9.114;2023-12-14T01:36:22;7.50;99.90
9125;DHT22;4597;48.730;9.114;2023-12-14T01:38:48;7.50;99.90
9125;DHT22;4597;48.730;9.114;2023-12-14T01:41:14;7.50;99.90
9125;DHT22;4597;48.730;9.114;2023-12-14T01:43:39;7.50;99.90
9125;DHT22;4597;48.730;9.114;2023-12-14T01:46:05;7.50;99.90
9125;DHT22;4597;48.730;9.114;2023-12-14T01:48:30;7.50;99.90
9125;DHT22;4597;48.730;9.114;2023-12-14T01:50:56;7.50;99.90
9125;DHT22;4597;48.730;9.114;2023-12-14T01:53:21;7.50;99.90
9125;DHT22;4597;48.730;9.114;2023-12-14T01:55:47;7.50;99.90
9125;DHT22;4597;48.730;9.114;2023-12-14T01:58:13;7.50;99.90
9125;DHT22;4597;48.730;9.114;2023-12-14T02:03:22;7.40;99.90
9125;DHT22;4597;48.730;9.114;2023-12-14T02:05:47;7.40;99.90
9125;DHT22;4597;48.730;9.114;2023-12-14T02:08:13;7.30;99.90
9125;DHT22;4597;48.730;9.114;2023-12-14T02:10:38;7.30;99.90
9125;DHT22;4597;48.730;9.114;2023-12-14T02:13:04;7.20;99.90
9125;DHT22;4597;48.730;9.114;2023-12-14T02:15:29;7.20;99.90
9125;DHT22;4597;48.730;9.114;2023-12-14T02:17:55;7.20;99.90
9125;DHT22;4597;48.730;9.114;2023-12-14T02:20:21;7.20;99.90
9125;DHT22;4597;48.730;9.114;2023-12-14T02:22:56;7.30;99.90
9125;DHT22;4597;48.730;9.114;2023-12-14T02:25:22;7.30;99.90
9125;DHT22;4597;48.730;9.114;2023-12-14T02:27:49;7.30;99.90
9125;DHT22;4597;48.730;9.114;2023-12-14T02:30:16;7.40;99.90
9125;DHT22;4597;48.730;9.114;2023-12-14T02:32:42;7.40;99.90
9125;DHT22;4597;48.730;9.114;2023-12-14T02:35:08;7.40;99.90
9125;DHT22;4597;48.730;9.114;2023-12-14T02:37:34;7.40;99.90
9125;DHT22;4597;48.730;9.114;2023-12-14T02:40:02;7.50;99.90
9125;DHT22;4597;48.730;9.114;2023-12-14T02:42:29;7.40;99.90
9125;DHT22;4597;48.730;9.114;2023-12-14T02:44:55;7.40;99.90
9125;DHT22;4597;48.730;9.114;2023-12-14T02:47:21;7.40;99.90
9125;DHT22;4597;48.730;9.114;2023-12-14T02:49:46;7.40;99.90
9125;DHT22;4597;48.730;9.114;2023-12-14T02:52:12;7.40;99.90
9125;DHT22;4597;48.730;9.114;2023-12-14T02:54:39;7.30;99.90
9125;DHT22;4597;48.730;9.114;2023-12-14T02:57:04;7.30;99.90
9125;DHT22;4597;48.730;9.114;2023-12-14T02:59:30;7.40;99.90
9125;DHT22;4597;48.730;9.114;2023-12-14T03:01:55;7.50;99.90
9125;DHT22;4597;48.730;9.114;2023-12-14T03:04:21;7.50;99.90
9125;DHT22;4597;48.730;9.114;2023-12-14T03:06:46;7.60;99.90
9125;DHT22;4597;48.730;9.114;2023-12-14T03:09:12;7.60;99.90
9125;DHT22;4597;48.730;9.114;2023-12-14T03:11:37;7.60;99.90
9125;DHT22;4597;48.730;9.114;2023-12-14T03:14:03;7.60;99.90
9125;DHT22;4597;48.730;9.114;2023-12-14T03:16:29;7.60;99.90
9125;DHT22;4597;48.730;9.114;2023-12-14T03:18:54;7.60;99.90
9125;DHT22;4597;48.730;9.114;2023-12-14T03:21:22;7.60;99.90
9125;DHT22;4597;48.730;9.114;2023-12-14T03:23:47;7.60;99.90
9125;DHT22;4597;48.730;9.114;2023-12-14T03:26:13;7.60;99.90
9125;DHT22;4597;48.730;9.114;2023-12-14T03:28:38;7.60;99.90
9125;DHT22;4597;48.730;9.114;2023-12-14T03:31:04;7.60;99.90
9125;DHT22;4597;48.730;9.114;2023-12-14T03:33:29;7.60;99.90
9125;DHT22;4597;48.730;9.114;2023-12-14T03:35:55;7.60;99.90
9125;DHT22;4597;48.730;9.114;2023-12-14T03:38:20;7.60;99.90
9125;DHT22;4597;48.730;9.114;2023-12-14T03:40:46;7.60;99.90
9125;DHT22;4597;48.730;9.114;2023-12-14T03:43:11;7.60;99.90
9125;DHT22;4597;48.730;9.114;2023-12-14T03:45:37;7.70;99.90
9125;DHT22;4597;48.730;9.114;2023-12-14T03:48:02;7.60;99.90
9125;DHT22;4597;48.730;9.114;2023-12-14T03:50:28;7.60;99.90
9125;DHT22;4597;48.730;9.114;2023-12-14T03:52:54;7.60;99.90
9125;DHT22;4597;48.730;9.114;2023-12-14T03:55:20;7.60;99.90
9125;DHT22;4597;48.730;9.114;2023-12-14T03:57:45;7.60;99.90
9125;DHT22;4597;48.730;9.114;2023-12-14T04:00:12;7.70;99.90
9125;DHT22;4597;48.730;9.114;2023-12-14T04:02:38;7.70;99.90
9125;DHT22;4597;48.730;9.114;2023-12-14T04:05:05;7.70;99.90
9125;DHT22;4597;48.730;9.114;2023-12-14T04:07:31;7.70;99.90
9125;DHT22;4597;48.730;9.114;2023-12-14T04:09:56;7.70;99.90
9125;DHT22;4597;48.730;9.114;2023-12-14T04:12:22;7.70;99.90
9125;DHT22;4597;48.730;9.114;2023-12-14T04:14:47;7.70;99.90
9125;DHT22;4597;48.730;9.114;2023-12-14T04:17:13;7.70;99.90
9125;DHT22;4597;48.730;9.114;2023-12-14T04:19:39;7.70;99.90
9125;DHT22;4597;48.730;9.114;2023-12-14T04:22:05;7.70;99.90
9125;DHT22;4597;48.730;9.114;2023-12-14T04:24:30;7.70;99.90
9125;DHT22;4597;48.730;9.114;2023-12-14T04:26:56;7.70;99.90
9125;DHT22;4597;48.730;9.114;2023-12-14T04:29:21;7.70;99.90
9125;DHT22;4597;48.730;9.114;2023-12-14T04:31:47;7.70;99.90
9125;DHT22;4597;48.730;9.114;2023-12-14T04:34:12;7.70;99.90
9125;DHT22;4597;48.730;9.114;2023-12-14T04:36:41;7.70;99.90
9125;DHT22;4597;48.730;9.114;2023-12-14T04:39:07;7.70;99.90
9125;DHT22;4597;48.730;9.114;2023-12-14T04:41:33;7.70;99.90
9125;DHT22;4597;48.730;9.114;2023-12-14T04:43:58;7.70;99.90
9125;DHT22;4597;48.730;9.114;2023-12-14T04:46:24;7.70;99.90
9125;DHT22;4597;48.730;9.114;2023-12-14T04:48:49;7.70;99.90
9125;DHT22;4597;48.730;9.114;2023-12-14T04:51:15;7.70;99.90
9125;DHT22;4597;48.730;9.114;2023-12-14T04:53:40;7.70;99.90
9125;DHT22;4597;48.730;9.114;2023-12-14T04:56:12;7.70;99.90
9125;DHT22;4597;48.730;9.114;2023-12-14T04:58:39;7.70;99.90
9125;DHT22;4597;48.730;9.114;2023-12-14T05:01:05;7.70;99.90
9125;DHT22;4597;48.730;9.114;2023-12-14T05:03:31;7.70;99.90
9125;DHT22;4597;48.730;9.114;2023-12-14T05:05:57;7.70;99.90
9125;DHT22;4597;48.730;9.114;2023-12-14T05:08:22;7.80;99.90
9125;DHT22;4597;48.730;9.114;2023-12-14T05:10:48;7.80;99.90
9125;DHT22;4597;48.730;9.114;2023-12-14T05:13:13;7.80;99.90
9125;DHT22;4597;48.730;9.114;2023-12-14T05:15:39;7.80;99.90
9125;DHT22;4597;48.730;9.114;2023-12-14T05:18:04;7.70;99.90
9125;DHT22;4597;48.730;9.114;2023-12-14T05:20:30;7.70;99.90
9125;DHT22;4597;48.730;9.114;2023-12-14T05:22:55;7.70;99.90
9125;DHT22;4597;48.730;9.114;2023-12-14T05:25:21;7.70;99.90
9125;DHT22;4597;48.730;9.114;2023-12-14T05:27:46;7.70;99.90
9125;DHT22;4597;48.730;9.114;2023-12-14T05:30:12;7.70;99.90
9125;DHT22;4597;48.730;9.114;2023-12-14T05:32:37;7.70;99.90
9125;DHT22;4597;48.730;9.114;2023-12-14T05:35:03;7.70;99.90
9125;DHT22;4597;48.730;9.114;2023-12-14T05:37:29;7.70;99.90
9125;DHT22;4597;48.730;9.114;2023-12-14T05:39:54;7.70;99.90
9125;DHT22;4597;48.730;9.114;2023-12-14T05:42:20;7.70;99.90
9125;DHT22;4597;48.730;9.114;2023-12-14T05:44:45;7.70;99.90
9125;DHT22;4597;48.730;9.114;2023-12-14T05:47:11;7.70;99.90
9125;DHT22;4597;48.730;9.114;2023-12-14T05:49:40;7.70;99.90
9125;DHT22;4597;48.730;9.114;2023-12-14T05:52:06;7.60;99.90
9125;DHT22;4597;48.730;9.114;2023-12-14T05:54:31;7.60;99.90
9125;DHT22;4597;48.730;9.114;2023-12-14T05:56:56;7.60;99.90
9125;DHT22;4597;48.730;9.114;2023-12-14T05:59:22;7.60;99.90
9125;DHT22;4597;48.730;9.114;2023-12-14T06:01:47;7.60;99.90
9125;DHT22;4597;48.730;9.114;2023-12-14T06:04:13;7.60;99.90
9125;DHT22;4597;48.730;9.114;2023-12-14T06:06:39;7.60;99.90
9125;DHT22;4597;48.730;9.114;2023-12-14T06:09:05;7.50;99.90
9125;DHT22;4597;48.730;9.114;2023-12-14T06:11:33;7.50;99.90
9125;DHT22;4597;48.730;9.114;2023-12-14T06:13:59;7.50;99.90
9125;DHT22;4597;48.730;9.114;2023-12-14T06:16:25;7.60;99.90
9125;DHT22;4597;48.730;9.114;2023-12-14T06:18:50;7.60;99.90
9125;DHT22;4597;48.730;9.114;2023-12-14T06:21:16;7.60;99.90
9125;DHT22;4597;48.730;9.114;2023-12-14T06:23:41;7.60;99.90
9125;DHT22;4597;48.730;9.114;2023-12-14T06:26:07;7.60;99.90
9125;DHT22;4597;48.730;9.114;2023-12-14T06:28:32;7.60;99.90
9125;DHT22;4597;48.730;9.114;2023-12-14T06:30:58;7.70;99.90
9125;DHT22;4597;48.730;9.114;2023-12-14T06:33:23;7.70;99.90
9125;DHT22;4597;48.730;9.114;2023-12-14T06:35:49;7.70;99.90
9125;DHT22;4597;48.730;9.114;2023-12-14T06:38:15;7.70;99.90
9125;DHT22;4597;48.730;9.114;2023-12-14T06:40:41;7.70;99.90
9125;DHT22;4597;48.730;9.114;2023-12-14T06:43:06;7.70;99.90
9125;DHT22;4597;48.730;9.114;2023-12-14T06:45:32;7.70;99.90
9125;DHT22;4597;48.730;9.114;2023-12-14T06:47:57;7.70;99.90
9125;DHT22;4597;48.730;9.114;2023-12-14T06:50:23;7.70;99.90
9125;DHT22;4597;48.730;9.114;2023-12-14T06:52:48;7.70;99.90
9125;DHT22;4597;48.730;9.114;2023-12-14T06:55:14;7.70;99.90
9125;DHT22;4597;48.730;9.114;2023-12-14T06:57:42;7.70;99.90
9125;DHT22;4597;48.730;9.114;2023-12-14T07:00:09;7.60;99.90
9125;DHT22;4597;48.730;9.114;2023-12-14T07:02:34;7.60;99.90
9125;DHT22;4597;48.730;9.114;2023-12-14T07:05:00;7.60;99.90
9125;DHT22;4597;48.730;9.114;2023-12-14T07:07:26;7.60;99.90
9125;DHT22;4597;48.730;9.114;2023-12-14T07:09:51;7.60;99.90
9125;DHT22;4597;48.730;9.114;2023-12-14T07:12:17;7.60;99.90
9125;DHT22;4597;48.730;9.114;2023-12-14T07:14:43;7.60;99.90
9125;DHT22;4597;48.730;9.114;2023-12-14T07:17:08;7.70;99.90
9125;DHT22;4597;48.730;9.114;2023-12-14T07:19:34;7.70;99.90
9125;DHT22;4597;48.730;9.114;2023-12-14T07:22:01;7.60;99.90
9125;DHT22;4597;48.730;9.114;2023-12-14T07:24:26;7.70;99.90
9125;DHT22;4597;48.730;9.114;2023-12-14T07:26:52;7.70;99.90
9125;DHT22;4597;48.730;9.114;2023-12-14T07:29:17;7.70;99.90
9125;DHT22;4597;48.730;9.114;2023-12-14T07:31:43;7.80;99.90
9125;DHT22;4597;48.730;9.114;2023-12-14T07:34:08;7.80;99.90
9125;DHT22;4597;48.730;9.114;2023-12-14T07:36:34;7.80;99.90
9125;DHT22;4597;48.730;9.114;2023-12-14T07:38:59;7.80;99.90
9125;DHT22;4597;48.730;9.114;2023-12-14T07:41:26;7.80;99.90
9125;DHT22;4597;48.730;9.114;2023-12-14T07:43:55;7.90;99.90
9125;DHT22;4597;48.730;9.114;2023-12-14T07:46:21;7.90;99.90
9125;DHT22;4597;48.730;9.114;2023-12-14T07:48:47;7.90;99.90
9125;DHT22;4597;48.730;9.114;2023-12-14T07:51:12;7.90;99.90
9125;DHT22;4597;48.730;9.114;2023-12-14T07:53:38;7.90;99.90
9125;DHT22;4597;48.730;9.114;2023-12-14T07:56:04;7.90;99.90
9125;DHT22;4597;48.730;9.114;2023-12-14T07:58:30;7.90;99.90
9125;DHT22;4597;48.730;9.114;2023-12-14T08:00:55;7.80;99.90
9125;DHT22;4597;48.730;9.114;2023-12-14T08:03:22;7.90;99.90
9125;DHT22;4597;48.730;9.114;2023-12-14T08:05:48;7.90;99.90
9125;DHT22;4597;48.730;9.114;2023-12-14T08:08:13;8.00;99.90
9125;DHT22;4597;48.730;9.114;2023-12-14T08:10:39;8.00;99.90
9125;DHT22;4597;48.730;9.114;2023-12-14T08:13:04;8.00;99.90
9125;DHT22;4597;48.730;9.114;2023-12-14T08:15:30;8.10;99.90
9125;DHT22;4597;48.730;9.114;2023-12-14T08:17:55;8.10;99.90
9125;DHT22;4597;48.730;9.114;2023-12-14T08:20:21;8.20;99.90
9125;DHT22;4597;48.730;9.114;2023-12-14T08:22:47;8.20;99.90
9125;DHT22;4597;48.730;9.114;2023-12-14T08:25:13;8.20;99.90
9125;DHT22;4597;48.730;9.114;2023-12-14T08:27:40;8.10;99.90
9125;DHT22;4597;48.730;9.114;2023-12-14T08:30:06;8.10;99.90
9125;DHT22;4597;48.730;9.114;2023-12-14T08:32:31;8.10;99.90
9125;DHT22;4597;48.730;9.114;2023-12-14T08:34:57;8.10;99.90
9125;DHT22;4597;48.730;9.114;2023-12-14T08:37:22;8.10;99.90
9125;DHT22;4597;48.730;9.114;2023-12-14T08:39:48;8.10;99.90
9125;DHT22;4597;48.730;9.114;2023-12-14T08:42:13;8.20;99.90
9125;DHT22;4597;48.730;9.114;2023-12-14T08:44:39;8.30;99.90
9125;DHT22;4597;48.730;9.114;2023-12-14T08:47:05;8.30;99.90
9125;DHT22;4597;48.730;9.114;2023-12-14T08:49:31;8.30;99.90
9125;DHT22;4597;48.730;9.114;2023-12-14T08:51:56;8.30;99.90
9125;DHT22;4597;48.730;9.114;2023-12-14T08:54:22;8.30;99.90
9125;DHT22;4597;48.730;9.114;2023-12-14T08:56:47;8.30;99.90
9125;DHT22;4597;48.730;9.114;2023-12-14T08:59:13;8.40;99.90
9125;DHT22;4597;48.730;9.114;2023-12-14T09:01:39;8.50;99.90
9125;DHT22;4597;48.730;9.114;2023-12-14T09:04:05;8.50;99.90
9125;DHT22;4597;48.730;9.114;2023-12-14T09:06:30;8.50;99.90
9125;DHT22;4597;48.730;9.114;2023-12-14T09:08:56;8.50;99.90
9125;DHT22;4597;48.730;9.114;2023-12-14T09:11:21;8.60;99.90
9125;DHT22;4597;48.730;9.114;2023-12-14T09:13:47;8.50;99.90
9125;DHT22;4597;48.730;9.114;2023-12-14T09:16:12;8.50;99.90
9125;DHT22;4597;48.730;9.114;2023-12-14T09:18:38;8.50;99.90
9125;DHT22;4597;48.730;9.114;2023-12-14T09:21:03;8.40;99.90
9125;DHT22;4597;48.730;9.114;2023-12-14T09:23:29;8.30;99.90
9125;DHT22;4597;48.730;9.114;2023-12-14T09:25:55;8.40;99.90
9125;DHT22;4597;48.730;9.114;2023-12-14T09:28:21;8.50;99.90
9125;DHT22;4597;48.730;9.114;2023-12-14T09:30:47;8.50;99.90
9125;DHT22;4597;48.730;9.114;2023-12-14T09:33:12;8.60;99.90
9125;DHT22;4597;48.730;9.114;2023-12-14T09:35:38;8.70;99.90
9125;DHT22;4597;48.730;9.114;2023-12-14T09:38:05;8.80;99.90
9125;DHT22;4597;48.730;9.114;2023-12-14T09:40:31;8.80;99.90
9125;DHT22;4597;48.730;9.114;2023-12-14T09:42:57;8.80;99.90
9125;DHT22;4597;48.730;9.114;2023-12-14T09:45:28;9.00;99.90
9125;DHT22;4597;48.730;9.114;2023-12-14T09:47:57;8.90;99.90
9125;DHT22;4597;48.730;9.114;2023-12-14T09:50:24;8.80;99.90
9125;DHT22;4597;48.730;9.114;2023-12-14T09:52:49;8.90;99.90
9125;DHT22;4597;48.730;9.114;2023-12-14T09:55:16;8.90;99.90
9125;DHT22;4597;48.730;9.114;2023-12-14T09:57:41;9.00;99.90
9125;DHT22;4597;48.730;9.114;2023-12-14T10:00:08;9.00;99.90
9125;DHT22;4597;48.730;9.114;2023-12-14T10:02:37;9.10;99.90
9125;DHT22;4597;48.730;9.114;2023-12-14T10:05:03;9.10;99.90
9125;DHT22;4597;48.730;9.114;2023-12-14T10:07:31;9.10;99.90
9125;DHT22;4597;48.730;9.114;2023-12-14T10:10:12;9.00;99.90
9125;DHT22;4597;48.730;9.114;2023-12-14T10:12:54;9.00;99.90
9125;DHT22;4597;48.730;9.114;2023-12-14T10:15:20;8.90;99.90
9125;DHT22;4597;48.730;9.114;2023-12-14T10:17:45;8.90;99.90
9125;DHT22;4597;48.730;9.114;2023-12-14T10:20:21;8.90;99.90
9125;DHT22;4597;48.730;9.114;2023-12-14T10:22:48;8.90;99.90
9125;DHT22;4597;48.730;9.114;2023-12-14T10:25:14;9.00;99.90
9125;DHT22;4597;48.730;9.114;2023-12-14T10:27:40;9.00;99.90
9125;DHT22;4597;48.730;9.114;2023-12-14T10:30:08;9.00;99.90
9125;DHT22;4597;48.730;9.114;2023-12-14T10:32:37;9.00;99.90
9125;DHT22;4597;48.730;9.114;2023-12-14T10:35:03;8.90;99.90
9125;DHT22;4597;48.730;9.114;2023-12-14T10:37:29;9.00;99.90
9125;DHT22;4597;48.730;9.114;2023-12-14T10:39:59;9.10;99.90
9125;DHT22;4597;48.730;9.114;2023-12-14T10:42:26;9.20;99.90
9125;DHT22;4597;48.730;9.114;2023-12-14T10:44:53;9.30;99.90
9125;DHT22;4597;48.730;9.114;2023-12-14T10:47:19;9.30;99.90
9125;DHT22;4597;48.730;9.114;2023-12-14T10:49:50;9.30;99.90
9125;DHT22;4597;48.730;9.114;2023-12-14T10:52:16;9.30;99.90
9125;DHT22;4597;48.730;9.114;2023-12-14T10:54:44;9.20;99.90
9125;DHT22;4597;48.730;9.114;2023-12-14T10:57:11;9.10;99.90
9125;DHT22;4597;48.730;9.114;2023-12-14T10:59:37;9.10;99.90
9125;DHT22;4597;48.730;9.114;2023-12-14T11:02:09;9.10;99.90
9125;DHT22;4597;48.730;9.114;2023-12-14T11:04:59;9.20;99.90
9125;DHT22;4597;48.730;9.114;2023-12-14T11:07:44;9.30;99.90
9125;DHT22;4597;48.730;9.114;2023-12-14T11:10:10;9.30;99.90
9125;DHT22;4597;48.730;9.114;2023-12-14T11:12:37;9.20;99.90
9125;DHT22;4597;48.730;9.114;2023-12-14T11:15:06;9.20;99.90
9125;DHT22;4597;48.730;9.114;2023-12-14T11:17:32;9.10;99.90
9125;DHT22;4597;48.730;9.114;2023-12-14T11:20:23;9.10;99.90
9125;DHT22;4597;48.730;9.114;2023-12-14T11:22:49;9.20;99.90
9125;DHT22;4597;48.730;9.114;2023-12-14T11:25:16;9.40;99.90
9125;DHT22;4597;48.730;9.114;2023-12-14T11:27:43;9.50;99.90
9125;DHT22;4597;48.730;9.114;2023-12-14T11:30:11;9.60;99.90
9125;DHT22;4597;48.730;9.114;2023-12-14T11:32:37;9.50;99.90
9125;DHT22;4597;48.730;9.114;2023-12-14T11:35:03;9.40;99.90
9125;DHT22;4597;48.730;9.114;2023-12-14T11:37:28;9.30;99.90
9125;DHT22;4597;48.730;9.114;2023-12-14T11:39:54;9.30;99.90
9125;DHT22;4597;48.730;9.114;2023-12-14T11:42:20;9.20;99.90
9125;DHT22;4597;48.730;9.114;2023-12-14T11:44:45;9.20;99.90
9125;DHT22;4597;48.730;9.114;2023-12-14T11:47:11;9.20;99.90
9125;DHT22;4597;48.730;9.114;2023-12-14T11:49:36;9.10;99.90
9125;DHT22;4597;48.730;9.114;2023-12-14T11:52:03;9.00;99.90
9125;DHT22;4597;48.730;9.114;2023-12-14T11:54:31;9.00;99.90
9125;DHT22;4597;48.730;9.114;2023-12-14T11:56:57;9.00;99.90
9125;DHT22;4597;48.730;9.114;2023-12-14T11:59:23;9.00;99.90
9125;DHT22;4597;48.730;9.114;2023-12-14T12:01:58;9.00;99.90
9125;DHT22;4597;48.730;9.114;2023-12-14T12:04:24;9.10;99.90
9125;DHT22;4597;48.730;9.114;2023-12-14T12:06:50;9.10;99.90
9125;DHT22;4597;48.730;9.114;2023-12-14T12:09:37;9.30;99.90
9125;DHT22;4597;48.730;9.114;2023-12-14T12:12:08;9.50;99.90
9125;DHT22;4597;48.730;9.114;2023-12-14T12:14:34;9.60;99.90
9125;DHT22;4597;48.730;9.114;2023-12-14T12:17:00;9.70;99.90
9125;DHT22;4597;48.730;9.114;2023-12-14T12:19:25;9.80;99.90
9125;DHT22;4597;48.730;9.114;2023-12-14T12:21:51;9.70;99.90
9125;DHT22;4597;48.730;9.114;2023-12-14T12:24:17;9.70;99.90
9125;DHT22;4597;48.730;9.114;2023-12-14T12:26:42;9.60;99.90
9125;DHT22;4597;48.730;9.114;2023-12-14T12:29:08;9.60;99.90
9125;DHT22;4597;48.730;9.114;2023-12-14T12:31:33;9.40;99.90
9125;DHT22;4597;48.730;9.114;2023-12-14T12:33:59;9.40;99.90
9125;DHT22;4597;48.730;9.114;2023-12-14T12:36:25;9.30;99.90
9125;DHT22;4597;48.730;9.114;2023-12-14T12:38:50;9.20;99.90
9125;DHT22;4597;48.730;9.114;2023-12-14T12:41:16;9.00;99.90
9125;DHT22;4597;48.730;9.114;2023-12-14T12:43:43;9.00;99.90
9125;DHT22;4597;48.730;9.114;2023-12-14T12:46:09;9.00;99.90
9125;DHT22;4597;48.730;9.114;2023-12-14T12:48:34;9.00;99.90
9125;DHT22;4597;48.730;9.114;2023-12-14T12:51:00;8.90;99.90
9125;DHT22;4597;48.730;9.114;2023-12-14T12:53:26;8.80;99.90
9125;DHT22;4597;48.730;9.114;2023-12-14T12:55:52;8.70;99.90
9125;DHT22;4597;48.730;9.114;2023-12-14T12:58:17;8.50;99.90
9125;DHT22;4597;48.730;9.114;2023-12-14T13:00:43;8.50;99.90
9125;DHT22;4597;48.730;9.114;2023-12-14T13:03:08;8.50;99.90
9125;DHT22;4597;48.730;9.114;2023-12-14T13:05:35;8.50;99.90
9125;DHT22;4597;48.730;9.114;2023-12-14T13:08:00;8.40;99.90
9125;DHT22;4597;48.730;9.114;2023-12-14T13:10:26;8.40;99.90
9125;DHT22;4597;48.730;9.114;2023-12-14T13:12:55;8.60;99.90
9125;DHT22;4597;48.730;9.114;2023-12-14T13:15:24;8.60;99.90
9125;DHT22;4597;48.730;9.114;2023-12-14T13:17:50;8.70;99.90
9125;DHT22;4597;48.730;9.114;2023-12-14T13:20:16;8.60;99.90
9125;DHT22;4597;48.730;9.114;2023-12-14T13:22:43;8.50;99.90
9125;DHT22;4597;48.730;9.114;2023-12-14T13:25:09;8.40;99.90
9125;DHT22;4597;48.730;9.114;2023-12-14T13:27:35;8.30;99.90
9125;DHT22;4597;48.730;9.114;2023-12-14T13:30:02;8.10;99.90
9125;DHT22;4597;48.730;9.114;2023-12-14T13:32:27;8.00;99.90
9125;DHT22;4597;48.730;9.114;2023-12-14T13:34:53;8.00;99.90
9125;DHT22;4597;48.730;9.114;2023-12-14T13:37:19;8.00;99.90
9125;DHT22;4597;48.730;9.114;2023-12-14T13:39:44;8.00;99.90
9125;DHT22;4597;48.730;9.114;2023-12-14T13:42:10;8.10;99.90
9125;DHT22;4597;48.730;9.114;2023-12-14T13:44:36;8.10;99.90
9125;DHT22;4597;48.730;9.114;2023-12-14T13:47:03;8.10;99.90
9125;DHT22;4597;48.730;9.114;2023-12-14T13:49:28;8.10;99.90
9125;DHT22;4597;48.730;9.114;2023-12-14T13:51:54;8.10;99.90
9125;DHT22;4597;48.730;9.114;2023-12-14T13:54:20;8.10;99.90
9125;DHT22;4597;48.730;9.114;2023-12-14T13:56:45;8.20;99.90
9125;DHT22;4597;48.730;9.114;2023-12-14T13:59:10;8.20;99.90
9125;DHT22;4597;48.730;9.114;2023-12-14T14:01:36;8.20;99.90
9125;DHT22;4597;48.730;9.114;2023-12-14T14:04:03;8.20;99.90
9125;DHT22;4597;48.730;9.114;2023-12-14T14:06:29;8.30;99.90
9125;DHT22;4597;48.730;9.114;2023-12-14T14:08:54;8.30;99.90
9125;DHT22;4597;48.730;9.114;2023-12-14T14:11:20;8.30;99.90
9125;DHT22;4597;48.730;9.114;2023-12-14T14:13:46;8.30;99.90
9125;DHT22;4597;48.730;9.114;2023-12-14T14:16:11;8.30;99.90
9125;DHT22;4597;48.730;9.114;2023-12-14T14:18:37;8.30;99.90
9125;DHT22;4597;48.730;9.114;2023-12-14T14:21:03;8.30;99.90
9125;DHT22;4597;48.730;9.114;2023-12-14T14:23:32;8.40;99.90
9125;DHT22;4597;48.730;9.114;2023-12-14T14:25:58;8.30;99.90
9125;DHT22;4597;48.730;9.114;2023-12-14T14:28:23;8.30;99.90
9125;DHT22;4597;48.730;9.114;2023-12-14T14:30:49;8.30;99.90
9125;DHT22;4597;48.730;9.114;2023-12-14T14:33:15;8.30;99.90
9125;DHT22;4597;48.730;9.114;2023-12-14T14:35:47;8.40;99.90
9125;DHT22;4597;48.730;9.114;2023-12-14T14:38:13;8.40;99.90
9125;DHT22;4597;48.730;9.114;2023-12-14T14:40:39;8.40;99.90
9125;DHT22;4597;48.730;9.114;2023-12-14T14:43:05;8.40;99.90
9125;DHT22;4597;48.730;9.114;2023-12-14T14:45:31;8.30;99.90
9125;DHT22;4597;48.730;9.114;2023-12-14T14:47:56;8.30;99.90
9125;DHT22;4597;48.730;9.114;2023-12-14T14:50:22;8.20;99.90
9125;DHT22;4597;48.730;9.114;2023-12-14T14:52:48;8.10;99.90
9125;DHT22;4597;48.730;9.114;2023-12-14T14:55:14;8.10;99.90
9125;DHT22;4597;48.730;9.114;2023-12-14T14:57:40;8.10;99.90
9125;DHT22;4597;48.730;9.114;2023-12-14T15:00:06;8.10;99.90
9125;DHT22;4597;48.730;9.114;2023-12-14T15:02:32;8.10;99.90
9125;DHT22;4597;48.730;9.114;2023-12-14T15:04:58;8.10;99.90
9125;DHT22;4597;48.730;9.114;2023-12-14T15:07:23;8.10;99.90
9125;DHT22;4597;48.730;9.114;2023-12-14T15:09:49;8.10;99.90
9125;DHT22;4597;48.730;9.114;2023-12-14T15:12:14;8.20;99.90
9125;DHT22;4597;48.730;9.114;2023-12-14T15:14:40;8.10;99.90
9125;DHT22;4597;48.730;9.114;2023-12-14T15:17:05;8.10;99.90
9125;DHT22;4597;48.730;9.114;2023-12-14T15:19:31;8.00;99.90
9125;DHT22;4597;48.730;9.114;2023-12-14T15:21:56;8.00;99.90
9125;DHT22;4597;48.730;9.114;2023-12-14T15:24:22;8.00;99.90
9125;DHT22;4597;48.730;9.114;2023-12-14T15:26:48;8.00;99.90
9125;DHT22;4597;48.730;9.114;2023-12-14T15:29:14;8.00;99.90
9125;DHT22;4597;48.730;9.114;2023-12-14T15:31:40;8.10;99.90
9125;DHT22;4597;48.730;9.114;2023-12-14T15:34:05;8.10;99.90
9125;DHT22;4597;48.730;9.114;2023-12-14T15:36:34;8.10;99.90
9125;DHT22;4597;48.730;9.114;2023-12-14T15:39:00;8.10;99.90
9125;DHT22;4597;48.730;9.114;2023-12-14T15:41:26;8.10;99.90
9125;DHT22;4597;48.730;9.114;2023-12-14T15:43:51;8.10;99.90
9125;DHT22;4597;48.730;9.114;2023-12-14T15:46:17;8.10;99.90
9125;DHT22;4597;48.730;9.114;2023-12-14T15:48:42;8.10;99.90
9125;DHT22;4597;48.730;9.114;2023-12-14T15:51:09;8.10;99.90
9125;DHT22;4597;48.730;9.114;2023-12-14T15:53:35;8.20;99.90
9125;DHT22;4597;48.730;9.114;2023-12-14T15:56:01;8.20;99.90
9125;DHT22;4597;48.730;9.114;2023-12-14T15:58:27;8.20;99.90
9125;DHT22;4597;48.730;9.114;2023-12-14T16:00:53;8.20;99.90
9125;DHT22;4597;48.730;9.114;2023-12-14T16:03:18;8.20;99.90
9125;DHT22;4597;48.730;9.114;2023-12-14T16:05:44;8.10;99.90
9125;DHT22;4597;48.730;9.114;2023-12-14T16:08:09;8.10;99.90
9125;DHT22;4597;48.730;9.114;2023-12-14T16:10:36;8.10;99.90
9125;DHT22;4597;48.730;9.114;2023-12-14T16:13:02;8.10;99.90